Terminal Aerodrome Forecast
Issued by NWS

Home | Current Version | Previous Version | Text Only | Print | Product List | Glossary Off
Versions: 1 2 3 4 5 6 7 8 9 10 11 12 13 14

000
FTUS43 KBIS 300500
TAFMOT
TAF
KMOT 300522Z 3006/3106 VRB03KT P6SM SKC
     FM301400 35005KT P6SM FEW040
     FM310200 04004KT P6SM SCT080=

USA.gov is the U.S. government's official web portal to all federal, state and local government web resources and services.